sensor_id;sensor_type;location;lat;lon;timestamp;pressure;altitude;pressure_sealevel;temperature;humidity
21240;BME280;10778;48.962;9.018;2023-09-30T00:01:44;99924.47;;;15.39;100.00
21240;BME280;10778;48.962;9.018;2023-09-30T00:04:10;99927.41;;;15.36;100.00
21240;BME280;10778;48.962;9.018;2023-09-30T00:06:36;99931.34;;;15.32;100.00
21240;BME280;10778;48.962;9.018;2023-09-30T00:09:03;99920.25;;;15.18;100.00
21240;BME280;10778;48.962;9.018;2023-09-30T00:11:29;99927.91;;;15.21;100.00
21240;BME280;10778;48.962;9.018;2023-09-30T00:13:54;99928.88;;;15.20;100.00
21240;BME280;10778;48.962;9.018;2023-09-30T00:16:20;99925.72;;;15.17;100.00
21240;BME280;10778;48.962;9.018;2023-09-30T00:18:46;99926.28;;;15.11;100.00
21240;BME280;10778;48.962;9.018;2023-09-30T00:21:12;99926.28;;;15.11;100.00
21240;BME280;10778;48.962;9.018;2023-09-30T00:23:38;99922.13;;;15.08;100.00
21240;BME280;10778;48.962;9.018;2023-09-30T00:26:04;99921.16;;;15.09;100.00
21240;BME280;10778;48.962;9.018;2023-09-30T00:28:33;99926.03;;;15.04;100.00
21240;BME280;10778;48.962;9.018;2023-09-30T00:31:07;99917.72;;;14.99;100.00
21240;BME280;10778;48.962;9.018;2023-09-30T00:33:37;99925.78;;;14.97;100.00
21240;BME280;10778;48.962;9.018;2023-09-30T00:36:09;99919.97;;;14.93;100.00
21240;BME280;10778;48.962;9.018;2023-09-30T00:38:36;99924.38;;;15.03;100.00
21240;BME280;10778;48.962;9.018;2023-09-30T00:41:02;99930.56;;;14.93;100.00
21240;BME280;10778;48.962;9.018;2023-09-30T00:43:33;99935.91;;;14.84;100.00
21240;BME280;10778;48.962;9.018;2023-09-30T00:48:33;99931.59;;;14.83;100.00
21240;BME280;10778;48.962;9.018;2023-09-30T00:51:00;99932.16;;;14.76;100.00
21240;BME280;10778;48.962;9.018;2023-09-30T00:53:28;99932.44;;;14.73;100.00
21240;BME280;10778;48.962;9.018;2023-09-30T00:55:55;99936.47;;;14.77;100.00
21240;BME280;10778;48.962;9.018;2023-09-30T00:58:25;99942.19;;;14.83;100.00
21240;BME280;10778;48.962;9.018;2023-09-30T01:00:56;99935.03;;;14.93;100.00
21240;BME280;10778;48.962;9.018;2023-09-30T01:03:24;99941.00;;;14.95;100.00
21240;BME280;10778;48.962;9.018;2023-09-30T01:05:54;99939.75;;;14.99;100.00
21240;BME280;10778;48.962;9.018;2023-09-30T01:08:20;99937.53;;;14.95;100.00
21240;BME280;10778;48.962;9.018;2023-09-30T01:10:48;99931.56;;;14.92;100.00
21240;BME280;10778;48.962;9.018;2023-09-30T01:13:17;99935.06;;;14.83;100.00
21240;BME280;10778;48.962;9.018;2023-09-30T01:15:43;99933.34;;;14.92;100.00
21240;BME280;10778;48.962;9.018;2023-09-30T01:18:09;99937.53;;;14.95;100.00
21240;BME280;10778;48.962;9.018;2023-09-30T01:20:36;99941.00;;;14.95;100.00
21240;BME280;10778;48.962;9.018;2023-09-30T01:23:06;99944.25;;;14.89;100.00
21240;BME280;10778;48.962;9.018;2023-09-30T01:25:34;99938.09;;;14.88;100.00
21240;BME280;10778;48.962;9.018;2023-09-30T01:28:00;99938.25;;;14.87;100.00
21240;BME280;10778;48.962;9.018;2023-09-30T01:30:32;99939.63;;;14.91;100.00
21240;BME280;10778;48.962;9.018;2023-09-30T01:32:59;99940.34;;;14.83;100.00
21240;BME280;10778;48.962;9.018;2023-09-30T01:35:26;99946.09;;;14.78;100.00
21240;BME280;10778;48.962;9.018;2023-09-30T01:37:53;99946.94;;;14.79;100.00
21240;BME280;10778;48.962;9.018;2023-09-30T01:40:18;99941.25;;;14.74;100.00
21240;BME280;10778;48.962;9.018;2023-09-30T01:42:45;99937.75;;;14.73;100.00
21240;BME280;10778;48.962;9.018;2023-09-30T01:45:11;99944.00;;;14.82;100.00
21240;BME280;10778;48.962;9.018;2023-09-30T01:47:37;99942.63;;;14.78;100.00
21240;BME280;10778;48.962;9.018;2023-09-30T01:50:03;99938.44;;;14.75;100.00
21240;BME280;10778;48.962;9.018;2023-09-30T01:52:29;99933.28;;;14.74;100.00
21240;BME280;10778;48.962;9.018;2023-09-30T01:54:56;99943.16;;;14.72;100.00
21240;BME280;10778;48.962;9.018;2023-09-30T01:57:22;99940.66;;;14.70;100.00
21240;BME280;10778;48.962;9.018;2023-09-30T01:59:47;99941.06;;;14.75;100.00
21240;BME280;10778;48.962;9.018;2023-09-30T02:02:14;99933.97;;;14.66;100.00
21240;BME280;10778;48.962;9.018;2023-09-30T02:04:40;99934.53;;;14.60;100.00
21240;BME280;10778;48.962;9.018;2023-09-30T02:07:06;99933.16;;;14.56;100.00
21240;BME280;10778;48.962;9.018;2023-09-30T02:09:32;99945.03;;;14.51;100.00
21240;BME280;10778;48.962;9.018;2023-09-30T02:12:00;99960.91;;;14.51;100.00
21240;BME280;10778;48.962;9.018;2023-09-30T02:14:26;99962.88;;;14.49;100.00
21240;BME280;10778;48.962;9.018;2023-09-30T02:16:52;99967.34;;;14.39;100.00
21240;BME280;10778;48.962;9.018;2023-09-30T02:19:19;99964.56;;;14.41;100.00
21240;BME280;10778;48.962;9.018;2023-09-30T02:21:45;99959.94;;;14.43;100.00
21240;BME280;10778;48.962;9.018;2023-09-30T02:24:12;99957.16;;;14.44;100.00
21240;BME280;10778;48.962;9.018;2023-09-30T02:26:37;99960.38;;;14.38;100.00
21240;BME280;10778;48.962;9.018;2023-09-30T02:29:05;99958.81;;;14.35;100.00
21240;BME280;10778;48.962;9.018;2023-09-30T02:31:34;99960.09;;;14.31;100.00
21240;BME280;10778;48.962;9.018;2023-09-30T02:33:59;99954.53;;;14.25;100.00
21240;BME280;10778;48.962;9.018;2023-09-30T02:36:27;99956.78;;;14.19;100.00
21240;BME280;10778;48.962;9.018;2023-09-30T02:38:53;99961.50;;;14.16;100.00
21240;BME280;10778;48.962;9.018;2023-09-30T02:41:20;99966.09;;;14.14;100.00
21240;BME280;10778;48.962;9.018;2023-09-30T02:43:46;99968.06;;;14.12;100.00
21240;BME280;10778;48.962;9.018;2023-09-30T02:46:12;99974.31;;;14.11;100.00
21240;BME280;10778;48.962;9.018;2023-09-30T02:48:39;99954.94;;;14.10;100.00
21240;BME280;10778;48.962;9.018;2023-09-30T02:51:09;99957.75;;;14.08;100.00
21240;BME280;10778;48.962;9.018;2023-09-30T02:53:35;99956.22;;;14.06;100.00
21240;BME280;10778;48.962;9.018;2023-09-30T02:56:01;99957.19;;;14.05;100.00
21240;BME280;10778;48.962;9.018;2023-09-30T02:58:27;99967.66;;;13.97;100.00
21240;BME280;10778;48.962;9.018;2023-09-30T03:00:54;99969.84;;;14.01;100.00
21240;BME280;10778;48.962;9.018;2023-09-30T03:03:21;99976.56;;;13.96;100.00
21240;BME280;10778;48.962;9.018;2023-09-30T03:05:47;99968.47;;;13.97;100.00
21240;BME280;10778;48.962;9.018;2023-09-30T03:08:16;99982.53;;;13.98;100.00
21240;BME280;10778;48.962;9.018;2023-09-30T03:10:42;99985.03;;;14.09;100.00
21240;BME280;10778;48.962;9.018;2023-09-30T03:13:08;99994.34;;;14.03;100.00
21240;BME280;10778;48.962;9.018;2023-09-30T03:15:35;99994.50;;;14.02;100.00
21240;BME280;10778;48.962;9.018;2023-09-30T03:18:01;99990.47;;;13.98;100.00
21240;BME280;10778;48.962;9.018;2023-09-30T03:20:27;99978.91;;;13.99;100.00
21240;BME280;10778;48.962;9.018;2023-09-30T03:22:53;99981.41;;;14.00;100.00
21240;BME280;10778;48.962;9.018;2023-09-30T03:25:20;99973.06;;;14.05;100.00
21240;BME280;10778;48.962;9.018;2023-09-30T03:27:47;99977.53;;;14.04;100.00
21240;BME280;10778;48.962;9.018;2023-09-30T03:30:14;99972.09;;;14.06;100.00
21240;BME280;10778;48.962;9.018;2023-09-30T03:32:42;99970.28;;;13.97;100.00
21240;BME280;10778;48.962;9.018;2023-09-30T03:35:09;99965.00;;;13.97;100.00
21240;BME280;10778;48.962;9.018;2023-09-30T03:37:43;99951.34;;;14.01;100.00
21240;BME280;10778;48.962;9.018;2023-09-30T03:40:11;99956.78;;;14.00;100.00
21240;BME280;10778;48.962;9.018;2023-09-30T03:42:45;99957.19;;;13.95;100.00
21240;BME280;10778;48.962;9.018;2023-09-30T03:45:11;99960.94;;;13.92;100.00
21240;BME280;10778;48.962;9.018;2023-09-30T03:47:40;99939.34;;;13.97;100.00
21240;BME280;10778;48.962;9.018;2023-09-30T03:50:07;99945.63;;;13.96;100.00
21240;BME280;10778;48.962;9.018;2023-09-30T03:52:41;99947.88;;;14.01;100.00
21240;BME280;10778;48.962;9.018;2023-09-30T03:55:13;99957.19;;;14.05;100.00
21240;BME280;10778;48.962;9.018;2023-09-30T03:57:41;99954.41;;;14.06;100.00
21240;BME280;10778;48.962;9.018;2023-09-30T04:00:07;99970.00;;;14.10;100.00
21240;BME280;10778;48.962;9.018;2023-09-30T04:02:39;99969.84;;;14.11;100.00
21240;BME280;10778;48.962;9.018;2023-09-30T04:05:08;99965.69;;;14.08;100.00
21240;BME280;10778;48.962;9.018;2023-09-30T04:07:37;99975.88;;;14.13;100.00
21240;BME280;10778;48.962;9.018;2023-09-30T04:10:03;99974.16;;;14.12;100.00
21240;BME280;10778;48.962;9.018;2023-09-30T04:12:30;99974.16;;;14.12;100.00
21240;BME280;10778;48.962;9.018;2023-09-30T04:14:58;99979.63;;;14.11;100.00
21240;BME280;10778;48.962;9.018;2023-09-30T04:17:24;99971.53;;;14.12;100.00
21240;BME280;10778;48.962;9.018;2023-09-30T04:19:50;99974.03;;;14.14;100.00
21240;BME280;10778;48.962;9.018;2023-09-30T04:22:19;99970.56;;;14.13;100.00
21240;BME280;10778;48.962;9.018;2023-09-30T04:24:47;99970.00;;;14.10;100.00
21240;BME280;10778;48.962;9.018;2023-09-30T04:27:15;99970.97;;;14.08;100.00
21240;BME280;10778;48.962;9.018;2023-09-30T04:29:42;99975.44;;;14.08;100.00
21240;BME280;10778;48.962;9.018;2023-09-30T04:32:08;99983.78;;;14.03;100.00
21240;BME280;10778;48.962;9.018;2023-09-30T04:34:35;99993.53;;;14.03;100.00
21240;BME280;10778;48.962;9.018;2023-09-30T04:37:01;99995.50;;;14.01;100.00
21240;BME280;10778;48.962;9.018;2023-09-30T04:39:27;99996.03;;;13.94;100.00
21240;BME280;10778;48.962;9.018;2023-09-30T04:41:53;99997.44;;;13.89;100.00
21240;BME280;10778;48.962;9.018;2023-09-30T04:44:20;99996.59;;;13.88;100.00
21240;BME280;10778;48.962;9.018;2023-09-30T04:46:48;100002.28;;;13.84;100.00
21240;BME280;10778;48.962;9.018;2023-09-30T04:49:15;100003.81;;;13.76;100.00
21240;BME280;10778;48.962;9.018;2023-09-30T04:51:41;100016.06;;;13.77;100.00
21240;BME280;10778;48.962;9.018;2023-09-30T04:54:07;100010.78;;;13.77;100.00
21240;BME280;10778;48.962;9.018;2023-09-30T04:56:35;100015.22;;;13.77;100.00
21240;BME280;10778;48.962;9.018;2023-09-30T04:59:01;100014.97;;;13.80;100.00
21240;BME280;10778;48.962;9.018;2023-09-30T05:01:28;100014.81;;;13.82;100.00
21240;BME280;10778;48.962;9.018;2023-09-30T05:03:54;100012.84;;;13.74;100.00
21240;BME280;10778;48.962;9.018;2023-09-30T05:06:20;100027.88;;;13.73;100.00
21240;BME280;10778;48.962;9.018;2023-09-30T05:08:47;100028.59;;;13.75;100.00
21240;BME280;10778;48.962;9.018;2023-09-30T05:11:15;100030.09;;;13.78;100.00
21240;BME280;10778;48.962;9.018;2023-09-30T05:13:41;100022.59;;;13.73;100.00
21240;BME280;10778;48.962;9.018;2023-09-30T05:16:07;100021.31;;;13.68;100.00
21240;BME280;10778;48.962;9.018;2023-09-30T05:18:34;100014.75;;;13.62;100.00
21240;BME280;10778;48.962;9.018;2023-09-30T05:21:00;100011.53;;;13.58;100.00
21240;BME280;10778;48.962;9.018;2023-09-30T05:23:26;100023.53;;;13.53;100.00
21240;BME280;10778;48.962;9.018;2023-09-30T05:25:52;100024.34;;;13.53;100.00
21240;BME280;10778;48.962;9.018;2023-09-30T05:28:20;100029.75;;;13.51;100.00
21240;BME280;10778;48.962;9.018;2023-09-30T05:30:46;100026.00;;;13.44;100.00
21240;BME280;10778;48.962;9.018;2023-09-30T05:33:12;100020.94;;;13.41;100.00
21240;BME280;10778;48.962;9.018;2023-09-30T05:35:43;100012.00;;;13.32;100.00
21240;BME280;10778;48.962;9.018;2023-09-30T05:38:09;100011.72;;;13.35;100.00
21240;BME280;10778;48.962;9.018;2023-09-30T05:40:36;100018.41;;;13.40;100.00
21240;BME280;10778;48.962;9.018;2023-09-30T05:43:02;100022.31;;;13.35;100.00
21240;BME280;10778;48.962;9.018;2023-09-30T05:45:31;100020.25;;;13.39;100.00
21240;BME280;10778;48.962;9.018;2023-09-30T05:48:01;100029.69;;;13.42;100.00
21240;BME280;10778;48.962;9.018;2023-09-30T05:50:29;100031.50;;;13.41;100.00
21240;BME280;10778;48.962;9.018;2023-09-30T05:52:55;100032.13;;;13.45;100.00
21240;BME280;10778;48.962;9.018;2023-09-30T05:55:22;100012.69;;;13.56;100.00
21240;BME280;10778;48.962;9.018;2023-09-30T05:57:48;100015.88;;;13.59;100.00
21240;BME280;10778;48.962;9.018;2023-09-30T06:00:18;100022.41;;;13.65;100.00
21240;BME280;10778;48.962;9.018;2023-09-30T06:02:49;100032.72;;;13.68;100.00
21240;BME280;10778;48.962;9.018;2023-09-30T06:05:17;100050.03;;;13.82;100.00
21240;BME280;10778;48.962;9.018;2023-09-30T06:07:48;100068.84;;;13.79;100.00
21240;BME280;10778;48.962;9.018;2023-09-30T06:10:14;100068.38;;;13.74;100.00
21240;BME280;10778;48.962;9.018;2023-09-30T06:12:47;100071.06;;;13.84;100.00
21240;BME280;10778;48.962;9.018;2023-09-30T06:15:16;100072.63;;;13.96;100.00
21240;BME280;10778;48.962;9.018;2023-09-30T06:17:50;100067.72;;;13.91;100.00
21240;BME280;10778;48.962;9.018;2023-09-30T06:20:21;100061.75;;;13.89;100.00
21240;BME280;10778;48.962;9.018;2023-09-30T06:22:48;100056.88;;;13.94;100.00
21240;BME280;10778;48.962;9.018;2023-09-30T06:25:17;100066.91;;;13.91;100.00
21240;BME280;10778;48.962;9.018;2023-09-30T06:27:44;100062.72;;;13.88;100.00
21240;BME280;10778;48.962;9.018;2023-09-30T06:30:11;100069.25;;;13.84;100.00
21240;BME280;10778;48.962;9.018;2023-09-30T06:32:37;100056.44;;;13.89;100.00
21240;BME280;10778;48.962;9.018;2023-09-30T06:35:04;100057.34;;;14.10;100.00
21240;BME280;10778;48.962;9.018;2023-09-30T06:37:32;100066.84;;;14.32;100.00
21240;BME280;10778;48.962;9.018;2023-09-30T06:39:58;100071.03;;;14.74;100.00
21240;BME280;10778;48.962;9.018;2023-09-30T06:42:24;100071.50;;;15.55;100.00
21240;BME280;10778;48.962;9.018;2023-09-30T06:44:50;100063.47;;;16.39;99.10
21240;BME280;10778;48.962;9.018;2023-09-30T06:47:18;100075.91;;;16.74;94.09
21240;BME280;10778;48.962;9.018;2023-09-30T06:49:44;100080.31;;;16.66;94.72
21240;BME280;10778;48.962;9.018;2023-09-30T06:52:12;100073.06;;;16.94;92.12
21240;BME280;10778;48.962;9.018;2023-09-30T06:54:39;100060.75;;;16.93;92.37
21240;BME280;10778;48.962;9.018;2023-09-30T06:57:04;100069.19;;;16.88;90.63
21240;BME280;10778;48.962;9.018;2023-09-30T06:59:32;100066.41;;;17.51;90.41
21240;BME280;10778;48.962;9.018;2023-09-30T07:01:58;100073.38;;;17.95;87.98
21240;BME280;10778;48.962;9.018;2023-09-30T07:04:24;100062.00;;;18.86;81.75
21240;BME280;10778;48.962;9.018;2023-09-30T07:06:55;100056.50;;;19.12;79.17
21240;BME280;10778;48.962;9.018;2023-09-30T07:09:21;100051.06;;;19.77;77.29
21240;BME280;10778;48.962;9.018;2023-09-30T07:11:47;100065.44;;;19.76;76.87
21240;BME280;10778;48.962;9.018;2023-09-30T07:14:15;100073.06;;;19.96;75.41
21240;BME280;10778;48.962;9.018;2023-09-30T07:16:41;100077.47;;;19.72;75.30
21240;BME280;10778;48.962;9.018;2023-09-30T07:19:06;100091.38;;;20.54;75.42
21240;BME280;10778;48.962;9.018;2023-09-30T07:21:32;100085.13;;;20.85;70.75
21240;BME280;10778;48.962;9.018;2023-09-30T07:23:58;100091.41;;;20.92;71.82
21240;BME280;10778;48.962;9.018;2023-09-30T07:26:25;100090.91;;;21.42;69.91
21240;BME280;10778;48.962;9.018;2023-09-30T07:28:51;100082.34;;;21.31;68.74
21240;BME280;10778;48.962;9.018;2023-09-30T07:31:20;100086.84;;;21.16;69.51
21240;BME280;10778;48.962;9.018;2023-09-30T07:33:47;100079.00;;;21.74;67.64
21240;BME280;10778;48.962;9.018;2023-09-30T07:36:13;100079.56;;;21.70;66.49
21240;BME280;10778;48.962;9.018;2023-09-30T07:38:40;100085.91;;;21.54;67.68
21240;BME280;10778;48.962;9.018;2023-09-30T07:41:06;100101.34;;;21.37;69.00
21240;BME280;10778;48.962;9.018;2023-09-30T07:43:32;100094.47;;;21.94;66.34
21240;BME280;10778;48.962;9.018;2023-09-30T07:45:58;100103.72;;;22.28;64.85
21240;BME280;10778;48.962;9.018;2023-09-30T07:48:24;100115.09;;;22.15;65.32
21240;BME280;10778;48.962;9.018;2023-09-30T07:50:51;100123.34;;;20.94;70.03
21240;BME280;10778;48.962;9.018;2023-09-30T07:53:17;100124.97;;;19.85;73.84
21240;BME280;10778;48.962;9.018;2023-09-30T07:55:43;100114.72;;;20.60;71.03
21240;BME280;10778;48.962;9.018;2023-09-30T07:58:09;100111.88;;;21.53;68.13
21240;BME280;10778;48.962;9.018;2023-09-30T08:00:35;100096.53;;;22.72;63.63
21240;BME280;10778;48.962;9.018;2023-09-30T08:03:02;100090.44;;;22.85;61.94
21240;BME280;10778;48.962;9.018;2023-09-30T08:05:28;100087.41;;;22.08;63.39
21240;BME280;10778;48.962;9.018;2023-09-30T08:07:54;100077.22;;;22.40;63.08
21240;BME280;10778;48.962;9.018;2023-09-30T08:10:20;100075.91;;;23.08;60.17
21240;BME280;10778;48.962;9.018;2023-09-30T08:12:46;100081.56;;;22.20;63.29
21240;BME280;10778;48.962;9.018;2023-09-30T08:15:14;100080.03;;;22.76;62.75
21240;BME280;10778;48.962;9.018;2023-09-30T08:17:40;100080.25;;;23.31;59.62
21240;BME280;10778;48.962;9.018;2023-09-30T08:20:07;100082.16;;;23.44;59.91
21240;BME280;10778;48.962;9.018;2023-09-30T08:22:36;100080.44;;;23.29;58.50
21240;BME280;10778;48.962;9.018;2023-09-30T08:25:03;100077.78;;;23.36;58.22
21240;BME280;10778;48.962;9.018;2023-09-30T08:27:29;100088.50;;;21.77;61.99
21240;BME280;10778;48.962;9.018;2023-09-30T08:29:55;100099.38;;;21.00;64.14
21240;BME280;10778;48.962;9.018;2023-09-30T08:32:21;100082.03;;;21.86;62.99
21240;BME280;10778;48.962;9.018;2023-09-30T08:34:47;100075.97;;;22.58;61.64
21240;BME280;10778;48.962;9.018;2023-09-30T08:37:13;100060.72;;;22.87;61.36
21240;BME280;10778;48.962;9.018;2023-09-30T08:39:39;100063.91;;;22.47;62.44
21240;BME280;10778;48.962;9.018;2023-09-30T08:42:09;100068.84;;;23.00;61.26
21240;BME280;10778;48.962;9.018;2023-09-30T08:44:39;100075.94;;;23.92;57.49
21240;BME280;10778;48.962;9.018;2023-09-30T08:47:06;100084.91;;;22.94;59.40
21240;BME280;10778;48.962;9.018;2023-09-30T08:49:41;100080.81;;;22.98;61.82
21240;BME280;10778;48.962;9.018;2023-09-30T08:52:10;100076.94;;;22.13;62.59
21240;BME280;10778;48.962;9.018;2023-09-30T08:54:37;100072.47;;;23.14;60.28
21240;BME280;10778;48.962;9.018;2023-09-30T08:57:04;100070.84;;;23.20;59.34
21240;BME280;10778;48.962;9.018;2023-09-30T08:59:31;100074.78;;;22.02;61.37
21240;BME280;10778;48.962;9.018;2023-09-30T09:01:59;100087.13;;;21.06;63.18
21240;BME280;10778;48.962;9.018;2023-09-30T09:04:25;100097.47;;;20.16;67.57
21240;BME280;10778;48.962;9.018;2023-09-30T09:06:55;100092.63;;;19.80;69.05
21240;BME280;10778;48.962;9.018;2023-09-30T09:09:21;100112.97;;;19.32;71.80
21240;BME280;10778;48.962;9.018;2023-09-30T09:11:48;100116.47;;;19.33;71.55
21240;BME280;10778;48.962;9.018;2023-09-30T09:14:14;100113.69;;;20.14;70.36
21240;BME280;10778;48.962;9.018;2023-09-30T09:16:54;100100.91;;;20.95;67.59
21240;BME280;10778;48.962;9.018;2023-09-30T09:19:21;100104.19;;;20.35;69.82
21240;BME280;10778;48.962;9.018;2023-09-30T09:21:57;100109.91;;;19.52;70.95
21240;BME280;10778;48.962;9.018;2023-09-30T09:24:31;100109.66;;;18.97;75.37
21240;BME280;10778;48.962;9.018;2023-09-30T09:27:13;100100.91;;;19.53;72.58
21240;BME280;10778;48.962;9.018;2023-09-30T09:29:42;100105.31;;;19.21;73.70
21240;BME280;10778;48.962;9.018;2023-09-30T09:32:15;100094.50;;;19.23;74.01
21240;BME280;10778;48.962;9.018;2023-09-30T09:34:45;100093.16;;;20.61;70.24
21240;BME280;10778;48.962;9.018;2023-09-30T09:37:19;100075.28;;;21.91;65.34
21240;BME280;10778;48.962;9.018;2023-09-30T09:39:56;100073.47;;;22.56;61.56
21240;BME280;10778;48.962;9.018;2023-09-30T09:42:30;100080.66;;;22.12;63.92
21240;BME280;10778;48.962;9.018;2023-09-30T09:44:59;100081.78;;;21.66;65.32
21240;BME280;10778;48.962;9.018;2023-09-30T09:47:25;100096.94;;;20.91;66.80
21240;BME280;10778;48.962;9.018;2023-09-30T09:49:52;100087.66;;;21.62;66.01
21240;BME280;10778;48.962;9.018;2023-09-30T09:52:20;100079.69;;;22.20;63.36
21240;BME280;10778;48.962;9.018;2023-09-30T09:54:46;100075.16;;;22.86;61.25
21240;BME280;10778;48.962;9.018;2023-09-30T09:57:12;100076.28;;;22.48;61.60
21240;BME280;10778;48.962;9.018;2023-09-30T09:59:39;100083.69;;;21.57;64.22
21240;BME280;10778;48.962;9.018;2023-09-30T10:02:10;100086.50;;;20.81;67.85
21240;BME280;10778;48.962;9.018;2023-09-30T10:04:38;100082.31;;;21.01;64.89
21240;BME280;10778;48.962;9.018;2023-09-30T10:07:04;100074.16;;;20.56;67.48
21240;BME280;10778;48.962;9.018;2023-09-30T10:09:34;100064.38;;;20.64;65.24
21240;BME280;10778;48.962;9.018;2023-09-30T10:12:01;100062.47;;;20.96;67.26
21240;BME280;10778;48.962;9.018;2023-09-30T10:14:31;100061.53;;;20.88;66.69
21240;BME280;10778;48.962;9.018;2023-09-30T10:17:02;100058.75;;;21.12;65.52
21240;BME280;10778;48.962;9.018;2023-09-30T10:19:29;100054.34;;;21.19;63.18
21240;BME280;10778;48.962;9.018;2023-09-30T10:24:55;100050.09;;;22.28;61.10
21240;BME280;10778;48.962;9.018;2023-09-30T10:29:48;100053.81;;;22.49;60.66
21240;BME280;10778;48.962;9.018;2023-09-30T10:32:19;100051.38;;;21.74;59.66
21240;BME280;10778;48.962;9.018;2023-09-30T10:34:49;100047.91;;;21.95;58.63
21240;BME280;10778;48.962;9.018;2023-09-30T10:37:21;100039.75;;;21.52;59.96
21240;BME280;10778;48.962;9.018;2023-09-30T10:39:55;100033.56;;;21.51;61.85
21240;BME280;10778;48.962;9.018;2023-09-30T10:42:49;100027.91;;;22.13;60.71
21240;BME280;10778;48.962;9.018;2023-09-30T10:51:13;100031.59;;;21.75;59.79
21240;BME280;10778;48.962;9.018;2023-09-30T10:53:45;100023.13;;;21.56;60.64
21240;BME280;10778;48.962;9.018;2023-09-30T10:56:12;100012.75;;;22.05;60.55
21240;BME280;10778;48.962;9.018;2023-09-30T10:58:49;100019.31;;;22.02;59.15
21240;BME280;10778;48.962;9.018;2023-09-30T11:01:20;100015.88;;;22.30;58.51
21240;BME280;10778;48.962;9.018;2023-09-30T11:03:48;100010.13;;;21.90;59.02
21240;BME280;10778;48.962;9.018;2023-09-30T11:06:20;100010.53;;;21.20;59.36
21240;BME280;10778;48.962;9.018;2023-09-30T11:08:55;100006.59;;;21.53;59.38
21240;BME280;10778;48.962;9.018;2023-09-30T11:11:39;99999.53;;;21.82;56.97
21240;BME280;10778;48.962;9.018;2023-09-30T11:14:25;99992.34;;;22.04;57.04
21240;BME280;10778;48.962;9.018;2023-09-30T11:16:53;99986.91;;;21.76;56.92
21240;BME280;10778;48.962;9.018;2023-09-30T11:19:20;99992.91;;;21.63;58.01
21240;BME280;10778;48.962;9.018;2023-09-30T11:21:48;100001.03;;;21.84;56.69
21240;BME280;10778;48.962;9.018;2023-09-30T11:24:15;99997.25;;;22.22;56.48
21240;BME280;10778;48.962;9.018;2023-09-30T11:26:42;99997.50;;;22.27;56.87
21240;BME280;10778;48.962;9.018;2023-09-30T11:29:15;99993.13;;;22.20;56.06
21240;BME280;10778;48.962;9.018;2023-09-30T11:31:44;99995.47;;;22.51;56.75
21240;BME280;10778;48.962;9.018;2023-09-30T11:34:10;99993.22;;;22.33;56.28
21240;BME280;10778;48.962;9.018;2023-09-30T11:36:39;100002.91;;;21.69;59.49
21240;BME280;10778;48.962;9.018;2023-09-30T11:39:08;100005.16;;;21.50;59.76
21240;BME280;10778;48.962;9.018;2023-09-30T11:41:39;100006.19;;;21.19;60.42
21240;BME280;10778;48.962;9.018;2023-09-30T11:44:09;99999.44;;;20.93;59.97
21240;BME280;10778;48.962;9.018;2023-09-30T11:51:56;100009.69;;;20.51;61.89
21240;BME280;10778;48.962;9.018;2023-09-30T11:54:22;100007.63;;;20.38;62.94
21240;BME280;10778;48.962;9.018;2023-09-30T11:56:53;100007.88;;;20.28;61.10
21240;BME280;10778;48.962;9.018;2023-09-30T11:59:19;100016.00;;;20.35;61.35
21240;BME280;10778;48.962;9.018;2023-09-30T12:01:46;100007.16;;;20.73;59.97
21240;BME280;10778;48.962;9.018;2023-09-30T12:04:15;100009.50;;;20.91;61.01
21240;BME280;10778;48.962;9.018;2023-09-30T12:06:43;100007.19;;;20.88;59.35
21240;BME280;10778;48.962;9.018;2023-09-30T12:09:09;99997.25;;;20.82;59.41
21240;BME280;10778;48.962;9.018;2023-09-30T12:11:39;100003.44;;;20.97;60.79
21240;BME280;10778;48.962;9.018;2023-09-30T12:14:05;99992.81;;;21.56;58.51
21240;BME280;10778;48.962;9.018;2023-09-30T12:16:32;99984.41;;;21.74;56.96
21240;BME280;10778;48.962;9.018;2023-09-30T12:18:58;99990.03;;;21.79;56.93
21240;BME280;10778;48.962;9.018;2023-09-30T12:21:23;99988.50;;;21.70;58.24
21240;BME280;10778;48.962;9.018;2023-09-30T12:23:49;99996.03;;;21.81;59.55
21240;BME280;10778;48.962;9.018;2023-09-30T12:26:17;99995.19;;;21.14;60.08
21240;BME280;10778;48.962;9.018;2023-09-30T12:28:46;99997.72;;;20.62;62.08
21240;BME280;10778;48.962;9.018;2023-09-30T12:31:12;99994.41;;;20.60;60.42
21240;BME280;10778;48.962;9.018;2023-09-30T12:33:39;99994.66;;;20.50;61.42
21240;BME280;10778;48.962;9.018;2023-09-30T12:36:06;99993.38;;;20.46;60.29
21240;BME280;10778;48.962;9.018;2023-09-30T12:38:33;99994.19;;;20.85;61.67
21240;BME280;10778;48.962;9.018;2023-09-30T12:40:59;99981.91;;;21.06;59.76
21240;BME280;10778;48.962;9.018;2023-09-30T12:43:26;99979.25;;;21.57;57.97
21240;BME280;10778;48.962;9.018;2023-09-30T12:45:52;99986.03;;;21.53;58.10
21240;BME280;10778;48.962;9.018;2023-09-30T12:48:18;99986.97;;;21.45;57.86
21240;BME280;10778;48.962;9.018;2023-09-30T12:50:44;99974.41;;;21.83;55.83
21240;BME280;10778;48.962;9.018;2023-09-30T12:53:10;99986.53;;;21.79;55.93
21240;BME280;10778;48.962;9.018;2023-09-30T12:55:36;99983.34;;;22.12;55.55
21240;BME280;10778;48.962;9.018;2023-09-30T12:58:02;99985.25;;;22.18;53.75
21240;BME280;10778;48.962;9.018;2023-09-30T13:00:28;99976.13;;;22.34;53.56
21240;BME280;10778;48.962;9.018;2023-09-30T13:03:00;99970.22;;;23.02;52.68
21240;BME280;10778;48.962;9.018;2023-09-30T13:05:26;99972.19;;;22.94;52.80
21240;BME280;10778;48.962;9.018;2023-09-30T13:07:52;99956.63;;;23.18;51.10
21240;BME280;10778;48.962;9.018;2023-09-30T13:10:18;99955.34;;;23.07;50.29
21240;BME280;10778;48.962;9.018;2023-09-30T13:12:45;99951.97;;;22.56;52.78